createdAt,value
2023-02-25T00:00:24.517Z,100412.25
2023-02-25T00:05:43.506Z,100420.88
2023-02-25T00:08:10.139Z,100431.34
2023-02-25T00:11:11.514Z,100434.72
2023-02-25T00:13:40.685Z,100421.06
2023-02-25T00:16:07.975Z,100407.25
2023-02-25T00:18:34.757Z,100411.53
2023-02-25T00:21:06.126Z,100408.97
2023-02-25T00:23:33.084Z,100414.22
2023-02-25T00:26:05.496Z,100409.94
2023-02-25T00:28:33.418Z,100403.09
2023-02-25T00:31:00.133Z,100410.72
2023-02-25T00:33:26.902Z,100407.38
2023-02-25T00:35:56.147Z,100409.84
2023-02-25T00:38:22.892Z,100405.56
2023-02-25T00:40:49.471Z,100404.72
2023-02-25T00:43:16.095Z,100405.50
2023-02-25T00:45:42.761Z,100405.50
2023-02-25T00:48:09.312Z,100408.91
2023-02-25T00:53:05.564Z,100419.41
2023-02-25T00:55:33.508Z,100404.09
2023-02-25T00:58:03.626Z,100407.53
2023-02-25T01:00:35.958Z,100394.81
2023-02-25T01:03:09.721Z,100398.22
2023-02-25T01:05:41.687Z,100398.97
2023-02-25T01:08:08.383Z,100401.81
2023-02-25T01:10:34.910Z,100417.28
2023-02-25T01:13:01.456Z,100412.97
2023-02-25T01:15:30.606Z,100404.47
2023-02-25T01:17:57.124Z,100417.34
2023-02-25T01:20:24.264Z,100417.41
2023-02-25T01:22:50.808Z,100401.94
2023-02-25T01:25:18.519Z,100415.59
2023-02-25T01:27:45.035Z,100415.59
2023-02-25T01:30:12.237Z,100416.47
2023-02-25T01:32:38.916Z,100417.47
2023-02-25T01:35:06.919Z,100408.03
2023-02-25T01:37:33.494Z,100408.88
2023-02-25T01:40:00.053Z,100402.84
2023-02-25T01:42:26.812Z,100407.19
2023-02-25T01:45:17.888Z,100404.53
2023-02-25T01:47:52.178Z,100396.78
2023-02-25T01:50:21.871Z,100404.50
2023-02-25T01:52:48.832Z,100418.97
2023-02-25T01:55:15.864Z,100415.72
2023-02-25T01:57:42.431Z,100413.25
2023-02-25T02:00:16.529Z,100418.44
2023-02-25T02:02:47.726Z,100422.81
2023-02-25T02:05:15.250Z,100409.03
2023-02-25T02:07:41.762Z,100414.22
2023-02-25T02:10:11.172Z,100414.19
2023-02-25T02:12:42.292Z,100406.50
2023-02-25T02:15:12.674Z,100406.44
2023-02-25T02:17:49.660Z,100416.69
2023-02-25T02:20:21.440Z,100410.69
2023-02-25T02:23:16.738Z,100419.28
2023-02-25T02:25:58.507Z,100414.16
2023-02-25T02:28:55.775Z,100418.31
2023-02-25T02:31:28.472Z,100409.69
2023-02-25T02:34:19.591Z,100414.78
2023-02-25T02:37:01.324Z,100411.25
2023-02-25T02:39:58.472Z,100411.31
2023-02-25T02:42:43.784Z,100413.13
2023-02-25T02:45:35.277Z,100415.59
2023-02-25T02:48:09.985Z,100416.47
2023-02-25T02:50:40.954Z,100416.59
2023-02-25T02:53:14.535Z,100413.25
2023-02-25T02:55:46.342Z,100411.53
2023-02-25T02:58:25.323Z,100406.47
2023-02-25T03:00:58.377Z,100405.75
2023-02-25T03:03:36.496Z,100415.00
2023-02-25T03:06:07.472Z,100417.66
2023-02-25T03:08:40.397Z,100409.13
2023-02-25T03:11:07.006Z,100416.88
2023-02-25T03:13:33.541Z,100427.94
2023-02-25T03:16:04.254Z,100417.59
2023-02-25T03:18:39.384Z,100424.50
2023-02-25T03:21:15.003Z,100420.25
2023-02-25T03:23:46.474Z,100421.16
2023-02-25T03:26:18.740Z,100423.63
2023-02-25T03:28:46.276Z,100440.69
2023-02-25T03:31:12.780Z,100430.50
2023-02-25T03:33:49.019Z,100427.94
2023-02-25T03:36:44.133Z,100432.16
2023-02-25T03:39:26.892Z,100430.50
2023-02-25T03:41:56.430Z,100426.25
2023-02-25T03:44:30.447Z,100431.41
2023-02-25T03:46:58.839Z,100441.59
2023-02-25T03:49:43.180Z,100441.72
2023-02-25T03:52:17.073Z,100447.72
2023-02-25T03:54:43.680Z,100446.00
2023-02-25T03:57:10.320Z,100446.81
2023-02-25T03:59:37.110Z,100448.44
2023-02-25T04:02:03.785Z,100456.91
2023-02-25T04:04:32.884Z,100457.69
2023-02-25T04:06:59.850Z,100458.53
2023-02-25T04:09:26.784Z,100461.13
2023-02-25T04:11:57.132Z,100457.75
2023-02-25T04:14:24.577Z,100461.97
2023-02-25T04:16:51.230Z,100463.66
2023-02-25T04:19:18.786Z,100456.78
2023-02-25T04:21:45.295Z,100469.59
2023-02-25T04:24:11.864Z,100477.34
2023-02-25T04:26:38.404Z,100469.59
2023-02-25T04:29:05.084Z,100469.53
2023-02-25T04:31:31.989Z,100473.91
2023-02-25T04:33:58.625Z,100468.06
2023-02-25T04:36:31.396Z,100462.84
2023-02-25T04:39:00.588Z,100459.38
2023-02-25T04:41:33.160Z,100463.53
2023-02-25T04:44:00.689Z,100467.09
2023-02-25T04:46:27.419Z,100466.22
2023-02-25T04:48:54.206Z,100471.28
2023-02-25T04:51:21.278Z,100465.22
2023-02-25T04:53:48.396Z,100472.06
2023-02-25T04:56:15.294Z,100466.91
2023-02-25T04:58:41.904Z,100468.53
2023-02-25T05:01:12.375Z,100470.31
2023-02-25T05:03:39.292Z,100473.81
2023-02-25T05:06:06.774Z,100461.84
2023-02-25T05:08:34.246Z,100473.06
2023-02-25T05:11:01.932Z,100463.53
2023-02-25T05:13:29.197Z,100459.28
2023-02-25T05:16:10.952Z,100469.69
2023-02-25T05:18:42.277Z,100450.78
2023-02-25T05:21:12.306Z,100452.41
2023-02-25T05:23:40.064Z,100452.47
2023-02-25T05:26:07.009Z,100456.06
2023-02-25T05:28:33.880Z,100456.91
2023-02-25T05:31:00.798Z,100463.84
2023-02-25T05:33:27.595Z,100474.22
2023-02-25T05:35:54.127Z,100469.91
2023-02-25T05:38:20.676Z,100473.34
2023-02-25T05:40:47.756Z,100463.06
2023-02-25T05:43:14.284Z,100460.47
2023-02-25T05:45:40.866Z,100461.22
2023-02-25T05:48:07.887Z,100471.38
2023-02-25T05:50:41.879Z,100465.47
2023-02-25T05:53:09.870Z,100474.06
2023-02-25T05:55:41.814Z,100480.06
2023-02-25T05:58:08.604Z,100474.00
2023-02-25T06:00:36.298Z,100481.75
2023-02-25T06:03:02.935Z,100480.94
2023-02-25T06:05:32.298Z,100471.53
2023-02-25T06:07:59.107Z,100467.28
2023-02-25T06:10:27.611Z,100472.44
2023-02-25T06:12:54.167Z,100468.94
2023-02-25T06:15:20.735Z,100479.25
2023-02-25T06:17:47.270Z,100473.34
2023-02-25T06:20:16.591Z,100476.66
2023-02-25T06:22:43.649Z,100486.91
2023-02-25T06:25:10.186Z,100491.19
2023-02-25T06:27:37.142Z,100496.38
2023-02-25T06:30:04.895Z,100496.44
2023-02-25T06:32:31.685Z,100497.34
2023-02-25T06:34:58.426Z,100498.31
2023-02-25T06:37:25.165Z,100511.94
2023-02-25T06:39:53.167Z,100514.56
2023-02-25T06:42:20.266Z,100516.19
2023-02-25T06:44:46.835Z,100520.47
2023-02-25T06:47:13.342Z,100523.88
2023-02-25T06:49:40.202Z,100523.00
2023-02-25T06:52:06.788Z,100522.16
2023-02-25T06:54:33.355Z,100524.66
2023-02-25T06:57:00.866Z,100516.97
2023-02-25T06:59:27.505Z,100512.72
2023-02-25T07:01:54.192Z,100516.13
2023-02-25T07:04:20.847Z,100528.09
2023-02-25T07:06:47.471Z,100530.63
2023-02-25T07:09:14.017Z,100543.47
2023-02-25T07:11:40.638Z,100549.44
2023-02-25T07:14:07.356Z,100548.63
2023-02-25T07:16:34.686Z,100545.97
2023-02-25T07:19:02.451Z,100545.84
2023-02-25T07:21:31.055Z,100541.50
2023-02-25T07:23:58.793Z,100531.16
2023-02-25T07:26:43.045Z,100545.66
2023-02-25T07:29:09.793Z,100533.72
2023-02-25T07:31:36.399Z,100536.41
2023-02-25T07:34:08.270Z,100541.53
2023-02-25T07:36:38.513Z,100539.69
2023-02-25T07:39:06.800Z,100541.31
2023-02-25T07:41:36.053Z,100537.97
2023-02-25T07:44:05.108Z,100545.59
2023-02-25T07:46:32.604Z,100554.31
2023-02-25T07:48:59.867Z,100559.31
2023-02-25T07:51:27.117Z,100574.78
2023-02-25T07:53:58.521Z,100571.38
2023-02-25T07:56:28.027Z,100565.38
2023-02-25T07:58:54.696Z,100572.22
2023-02-25T08:01:27.883Z,100581.66
2023-02-25T08:03:57.494Z,100574.03
2023-02-25T08:06:24.532Z,100582.63
2023-02-25T08:08:54.776Z,100586.88
2023-02-25T08:11:23.527Z,100592.00
2023-02-25T08:13:50.746Z,100595.53
2023-02-25T08:16:20.788Z,100596.56
2023-02-25T08:18:48.130Z,100607.78
2023-02-25T08:21:18.574Z,100595.75
2023-02-25T08:23:45.402Z,100606.13
2023-02-25T08:26:17.541Z,100602.69
2023-02-25T08:28:44.842Z,100618.09
2023-02-25T08:31:15.121Z,100606.09
2023-02-25T08:33:43.790Z,100617.94
2023-02-25T08:36:26.023Z,100615.28
2023-02-25T08:38:59.512Z,100617.00
2023-02-25T08:41:29.536Z,100621.22
2023-02-25T08:43:58.277Z,100614.25
2023-02-25T08:46:27.700Z,100613.34
2023-02-25T08:48:54.978Z,100608.88
2023-02-25T08:51:27.756Z,100612.19
2023-02-25T08:53:54.393Z,100613.66
2023-02-25T08:56:21.327Z,100609.16
2023-02-25T08:58:47.933Z,100604.78
2023-02-25T09:01:16.912Z,100604.81
2023-02-25T09:03:53.819Z,100614.38
2023-02-25T09:06:27.943Z,100614.44
2023-02-25T09:08:56.343Z,100632.50
2023-02-25T09:11:26.423Z,100635.13
2023-02-25T09:13:54.394Z,100638.66
2023-02-25T09:16:21.355Z,100648.00
2023-02-25T09:18:49.003Z,100654.75
2023-02-25T09:21:15.938Z,100640.94
2023-02-25T09:23:42.975Z,100645.78
2023-02-25T09:26:10.056Z,100640.63
2023-02-25T09:28:36.738Z,100650.00
2023-02-25T09:31:04.147Z,100657.94
2023-02-25T09:33:32.145Z,100651.22
2023-02-25T09:36:08.651Z,100658.94
2023-02-25T09:38:36.903Z,100661.59
2023-02-25T09:41:04.744Z,100659.88
2023-02-25T09:43:40.047Z,100665.06
2023-02-25T09:46:14.113Z,100677.00
2023-02-25T09:48:59.846Z,100691.50
2023-02-25T09:51:31.567Z,100699.34
2023-02-25T09:54:16.726Z,100701.88
2023-02-25T09:56:45.821Z,100708.19
2023-02-25T09:59:21.576Z,100698.81
2023-02-25T10:01:58.642Z,100715.34
2023-02-25T10:04:37.812Z,100724.09
2023-02-25T10:07:15.871Z,100725.88
2023-02-25T10:09:54.148Z,100739.78
2023-02-25T10:12:45.871Z,100754.41
2023-02-25T10:15:27.732Z,100750.28
2023-02-25T10:18:08.352Z,100755.53
2023-02-25T10:20:39.242Z,100747.66
2023-02-25T10:23:27.716Z,100733.19
2023-02-25T10:26:09.283Z,100740.84
2023-02-25T10:28:36.068Z,100732.22
2023-02-25T10:31:10.031Z,100747.59
2023-02-25T10:33:40.894Z,100748.34
2023-02-25T10:36:15.634Z,100748.06
2023-02-25T10:38:48.754Z,100754.72
2023-02-25T10:41:16.919Z,100755.28
2023-02-25T10:43:44.740Z,100749.91
2023-02-25T10:46:23.226Z,100748.66
2023-02-25T10:49:16.319Z,100758.75
2023-02-25T10:51:56.941Z,100753.19
2023-02-25T10:54:24.885Z,100759.88
2023-02-25T10:56:52.738Z,100745.25
2023-02-25T10:59:31.325Z,100748.31
2023-02-25T11:02:00.231Z,100750.00
2023-02-25T11:04:37.553Z,100753.72
2023-02-25T11:07:38.195Z,100764.84
2023-02-25T11:10:15.218Z,100748.78
2023-02-25T11:12:49.199Z,100750.59
2023-02-25T11:15:37.845Z,100767.56
2023-02-25T11:18:23.903Z,100754.78
2023-02-25T11:20:59.493Z,100757.09
2023-02-25T11:23:37.906Z,100766.34
2023-02-25T11:26:06.885Z,100754.22
2023-02-25T11:28:39.788Z,100761.00
2023-02-25T11:31:19.158Z,100749.31
2023-02-25T11:33:57.500Z,100758.59
2023-02-25T11:36:30.798Z,100749.69
2023-02-25T11:39:16.584Z,100743.41
2023-02-25T11:41:45.281Z,100753.72
2023-02-25T11:44:30.190Z,100754.56
2023-02-25T11:47:20.452Z,100760.44
2023-02-25T11:49:51.480Z,100751.88
2023-02-25T11:52:17.940Z,100749.25
2023-02-25T11:55:12.733Z,100752.44
2023-02-25T11:58:03.997Z,100750.41
2023-02-25T12:00:40.155Z,100751.09
2023-02-25T12:03:40.413Z,100747.53
2023-02-25T12:06:21.662Z,100755.19
2023-02-25T12:09:10.373Z,100751.94
2023-02-25T12:11:53.334Z,100773.28
2023-02-25T12:14:44.981Z,100770.03
2023-02-25T12:17:30.423Z,100772.59
2023-02-25T12:20:50.402Z,100771.78
2023-02-25T12:23:45.032Z,100767.41
2023-02-25T12:26:38.247Z,100781.94
2023-02-25T12:29:32.288Z,100773.16
2023-02-25T12:32:26.333Z,100775.72
2023-02-25T12:35:15.469Z,100794.66
2023-02-25T12:37:51.446Z,100786.19
2023-02-25T12:40:41.136Z,100790.25
2023-02-25T12:43:41.787Z,100780.03
2023-02-25T12:46:33.155Z,100778.50
2023-02-25T12:49:08.602Z,100785.44
2023-02-25T12:51:44.222Z,100782.13
2023-02-25T12:54:26.122Z,100764.06
2023-02-25T12:57:18.870Z,100784.91
2023-02-25T12:59:57.743Z,100780.47
2023-02-25T13:02:36.359Z,100799.28
2023-02-25T13:05:25.866Z,100773.72
2023-02-25T13:07:52.383Z,100780.59
2023-02-25T13:10:32.430Z,100786.31
2023-02-25T13:13:12.812Z,100803.13
2023-02-25T13:16:10.168Z,100794.28
2023-02-25T13:18:55.593Z,100806.50
2023-02-25T13:21:28.188Z,100809.75
2023-02-25T13:24:06.241Z,100817.78
2023-02-25T13:27:03.806Z,100838.56
2023-02-25T13:29:50.307Z,100818.81
2023-02-25T13:32:27.311Z,100818.69
2023-02-25T13:35:14.858Z,100821.97
2023-02-25T13:38:02.210Z,100816.63
2023-02-25T13:40:51.504Z,100814.53
2023-02-25T13:43:48.999Z,100826.69
2023-02-25T13:46:56.555Z,100835.19
2023-02-25T13:49:38.465Z,100830.84
2023-02-25T13:52:25.523Z,100836.88
2023-02-25T13:55:16.795Z,100835.31
2023-02-25T13:58:07.551Z,100848.19
2023-02-25T14:00:58.972Z,100834.59
2023-02-25T14:03:28.541Z,100846.50
2023-02-25T14:06:23.546Z,100858.44
2023-02-25T14:09:08.510Z,100848.19
2023-02-25T14:11:51.351Z,100861.19
2023-02-25T14:14:42.370Z,100852.69
2023-02-25T14:17:28.427Z,100861.44
2023-02-25T14:20:11.766Z,100864.03
2023-02-25T14:22:50.629Z,100870.94
2023-02-25T14:25:36.175Z,100864.19
2023-02-25T14:28:36.854Z,100858.13
2023-02-25T14:31:42.013Z,100863.25
2023-02-25T14:34:36.398Z,100865.75
2023-02-25T14:37:40.718Z,100882.94
2023-02-25T14:40:30.567Z,100901.88
2023-02-25T14:43:35.157Z,100879.59
2023-02-25T14:46:29.544Z,100895.81
2023-02-25T14:49:15.137Z,100889.03
2023-02-25T14:52:16.641Z,100894.94
2023-02-25T14:54:52.251Z,100911.16
2023-02-25T14:57:40.573Z,100904.28
2023-02-25T15:00:43.579Z,100905.16
2023-02-25T15:03:31.480Z,100908.63
2023-02-25T15:06:23.713Z,100900.91
2023-02-25T15:09:02.324Z,100916.34
2023-02-25T15:11:31.810Z,100942.28
2023-02-25T15:14:08.106Z,100914.09
2023-02-25T15:16:41.432Z,100916.72
2023-02-25T15:19:30.464Z,100903.09
2023-02-25T15:22:20.880Z,100921.94
2023-02-25T15:24:48.534Z,100913.41
2023-02-25T15:27:36.710Z,100933.16
2023-02-25T15:30:08.468Z,100932.34
2023-02-25T15:32:47.424Z,100928.19
2023-02-25T15:35:21.786Z,100946.19
2023-02-25T15:37:51.120Z,100937.63
2023-02-25T15:40:17.656Z,100944.47
2023-02-25T15:42:48.781Z,100956.50
2023-02-25T15:45:27.881Z,100948.00
2023-02-25T15:48:12.645Z,100961.75
2023-02-25T15:50:47.914Z,100964.34
2023-02-25T15:53:21.229Z,100966.94
2023-02-25T15:55:49.308Z,100967.78
2023-02-25T15:58:24.778Z,100967.84
2023-02-25T16:00:56.297Z,100975.56
2023-02-25T16:03:39.434Z,100979.97
2023-02-25T16:06:12.594Z,100978.31
2023-02-25T16:09:00.986Z,100989.41
2023-02-25T16:11:36.729Z,100996.28
2023-02-25T16:14:15.029Z,100992.84
2023-02-25T16:16:48.223Z,101019.44
2023-02-25T16:19:19.081Z,100997.16
2023-02-25T16:21:51.620Z,101021.25
2023-02-25T16:24:19.146Z,101016.13
2023-02-25T16:26:45.688Z,101016.97
2023-02-25T16:29:35.442Z,101041.84
2023-02-25T16:32:17.546Z,101023.16
2023-02-25T16:35:04.209Z,101003.44
2023-02-25T16:38:13.027Z,101035.22
2023-02-25T16:40:42.676Z,101032.66
2023-02-25T16:43:16.638Z,101040.41
2023-02-25T16:46:02.688Z,101047.31
2023-02-25T16:48:34.799Z,101045.69
2023-02-25T16:51:10.616Z,101059.44
2023-02-25T16:53:43.742Z,101062.88
2023-02-25T16:56:23.956Z,101066.28
2023-02-25T16:59:17.385Z,101074.00
2023-02-25T17:01:53.333Z,101069.72
2023-02-25T17:04:24.159Z,101075.78
2023-02-25T17:07:14.931Z,101075.00
2023-02-25T17:10:14.220Z,101084.44
2023-02-25T17:12:45.896Z,101082.81
2023-02-25T17:15:24.997Z,101080.31
2023-02-25T17:18:24.415Z,101094.88
2023-02-25T17:21:08.363Z,101089.72
2023-02-25T17:23:41.198Z,101093.22
2023-02-25T17:26:11.556Z,101105.25
2023-02-25T17:28:44.051Z,101107.81
2023-02-25T17:31:18.494Z,101102.69
2023-02-25T17:33:55.658Z,101110.38
2023-02-25T17:36:41.099Z,101107.81
2023-02-25T17:39:19.592Z,101126.72
2023-02-25T17:41:47.321Z,101126.72
2023-02-25T17:44:42.682Z,101131.88
2023-02-25T17:47:12.913Z,101146.47
2023-02-25T17:49:39.768Z,101138.84
2023-02-25T17:52:16.693Z,101157.69
2023-02-25T17:54:47.873Z,101148.31
2023-02-25T17:57:18.729Z,101162.00
2023-02-25T18:00:09.094Z,101158.66
2023-02-25T18:02:41.581Z,101155.28
2023-02-25T18:05:14.259Z,101167.25
2023-02-25T18:07:47.432Z,101163.81
2023-02-25T18:10:23.080Z,101165.56
2023-02-25T18:12:50.714Z,101175.84
2023-02-25T18:15:22.150Z,101178.47
2023-02-25T18:17:54.430Z,101178.47
2023-02-25T18:20:36.479Z,101190.47
2023-02-25T18:23:15.349Z,101187.91
2023-02-25T18:25:45.002Z,101187.06
2023-02-25T18:28:21.729Z,101192.22
2023-02-25T18:30:50.195Z,101193.94
2023-02-25T18:33:19.023Z,101199.94
2023-02-25T18:35:47.216Z,101200.81
2023-02-25T18:38:21.115Z,101200.81
2023-02-25T18:40:49.129Z,101209.38
2023-02-25T18:43:22.514Z,101208.53
2023-02-25T18:45:49.126Z,101205.94
2023-02-25T18:48:16.111Z,101203.41
2023-02-25T18:50:44.657Z,101207.66
2023-02-25T18:53:15.580Z,101213.69
2023-02-25T18:55:44.937Z,101219.66
2023-02-25T18:58:18.645Z,101219.69
2023-02-25T19:00:48.819Z,101217.97
2023-02-25T19:03:25.562Z,101220.56
2023-02-25T19:05:52.449Z,101224.84
2023-02-25T19:08:19.086Z,101230.81
2023-02-25T19:10:45.829Z,101235.09
2023-02-25T19:13:37.911Z,101241.09
2023-02-25T19:16:05.535Z,101235.09
2023-02-25T19:18:32.497Z,101235.16
2023-02-25T19:20:59.038Z,101242.88
2023-02-25T19:23:25.845Z,101235.19
2023-02-25T19:26:00.149Z,101241.16
2023-02-25T19:28:27.161Z,101236.91
2023-02-25T19:30:53.773Z,101238.63
2023-02-25T19:33:20.409Z,101243.78
2023-02-25T19:35:46.985Z,101248.88
2023-02-25T19:38:16.259Z,101246.34
2023-02-25T19:40:46.523Z,101253.19
2023-02-25T19:43:13.425Z,101254.03
2023-02-25T19:45:40.859Z,101255.75
2023-02-25T19:48:08.152Z,101257.44
2023-02-25T19:50:35.550Z,101257.47
2023-02-25T19:53:05.575Z,101266.88
2023-02-25T19:55:33.380Z,101271.16
2023-02-25T19:58:00.057Z,101260.88
2023-02-25T20:00:26.701Z,101274.56
2023-02-25T20:02:56.348Z,101282.28
2023-02-25T20:05:25.620Z,101278.00
2023-02-25T20:07:52.586Z,101284.81
2023-02-25T20:10:19.619Z,101283.13
2023-02-25T20:12:47.079Z,101281.41
2023-02-25T20:15:15.483Z,101286.53
2023-02-25T20:17:46.341Z,101283.13
2023-02-25T20:20:14.610Z,101286.53
2023-02-25T20:22:42.908Z,101287.41
2023-02-25T20:25:10.290Z,101303.66
2023-02-25T20:27:39.281Z,101301.94
2023-02-25T20:30:07.007Z,101309.63
2023-02-25T20:32:34.229Z,101310.50
2023-02-25T20:35:01.112Z,101313.94
2023-02-25T20:37:33.664Z,101322.44
2023-02-25T20:40:00.595Z,101328.44
2023-02-25T20:42:31.462Z,101313.91
2023-02-25T20:44:59.338Z,101317.31
2023-02-25T20:47:36.563Z,101324.16
2023-02-25T20:50:07.058Z,101327.56
2023-02-25T20:52:34.242Z,101327.56
2023-02-25T20:55:00.837Z,101327.56
2023-02-25T20:57:27.573Z,101336.13
2023-02-25T20:59:54.599Z,101327.59
2023-02-25T21:02:21.754Z,101334.41
2023-02-25T21:04:48.657Z,101341.25
2023-02-25T21:07:15.272Z,101331.81
2023-02-25T21:09:41.935Z,101351.50
2023-02-25T21:12:08.784Z,101360.03
2023-02-25T21:14:35.476Z,101358.31
2023-02-25T21:17:02.041Z,101360.03
2023-02-25T21:19:28.579Z,101357.47
2023-02-25T21:21:55.445Z,101354.03
2023-02-25T21:24:22.035Z,101361.75
2023-02-25T21:26:48.624Z,101365.16
2023-02-25T21:29:16.010Z,101362.59
2023-02-25T21:31:43.013Z,101377.09
2023-02-25T21:34:13.022Z,101373.69
2023-02-25T21:36:40.472Z,101374.53
2023-02-25T21:39:09.222Z,101376.25
2023-02-25T21:41:37.219Z,101370.28
2023-02-25T21:44:04.270Z,101379.66
2023-02-25T21:46:30.902Z,101366.84
2023-02-25T21:48:57.517Z,101372.84
2023-02-25T21:51:26.346Z,101375.38
2023-02-25T21:53:58.115Z,101380.50
2023-02-25T21:56:26.067Z,101381.34
2023-02-25T21:58:58.268Z,101388.19
2023-02-25T22:01:28.847Z,101390.72
2023-02-25T22:03:55.667Z,101386.47
2023-02-25T22:06:26.132Z,101384.75
2023-02-25T22:08:53.747Z,101388.16
2023-02-25T22:11:23.980Z,101389.84
2023-02-25T22:13:51.015Z,101398.38
2023-02-25T22:16:17.941Z,101400.97
2023-02-25T22:18:44.956Z,101398.38
2023-02-25T22:21:16.988Z,101402.63
2023-02-25T22:23:43.619Z,101392.41
2023-02-25T22:26:15.433Z,101392.41
2023-02-25T22:28:43.460Z,101394.06
2023-02-25T22:31:14.862Z,101400.03
2023-02-25T22:33:41.689Z,101408.59
2023-02-25T22:36:09.468Z,101404.28
2023-02-25T22:38:38.548Z,101402.56
2023-02-25T22:41:10.793Z,101400.84
2023-02-25T22:43:37.933Z,101398.28
2023-02-25T22:46:09.510Z,101399.09
2023-02-25T22:48:38.573Z,101399.97
2023-02-25T22:51:06.910Z,101399.09
2023-02-25T22:53:33.508Z,101398.22
2023-02-25T22:56:06.729Z,101402.50
2023-02-25T22:58:33.691Z,101412.75
2023-02-25T23:01:00.436Z,101399.97
2023-02-25T23:03:27.157Z,101404.19
2023-02-25T23:05:54.875Z,101400.78
2023-02-25T23:08:22.525Z,101405.03
2023-02-25T23:10:49.421Z,101421.22
2023-02-25T23:13:18.939Z,101411.88
2023-02-25T23:15:49.142Z,101416.97
2023-02-25T23:18:16.179Z,101420.41
2023-02-25T23:20:43.585Z,101416.94
2023-02-25T23:23:18.014Z,101417.78
2023-02-25T23:25:54.591Z,101414.38
2023-02-25T23:28:21.205Z,101418.66
2023-02-25T23:30:47.901Z,101420.34
2023-02-25T23:33:14.531Z,101426.34
2023-02-25T23:35:42.128Z,101427.19
2023-02-25T23:38:09.572Z,101422.03
2023-02-25T23:40:36.169Z,101436.56
2023-02-25T23:43:02.774Z,101423.72
2023-02-25T23:45:32.803Z,101428.00
2023-02-25T23:47:59.409Z,101431.44
2023-02-25T23:50:27.063Z,101427.19
2023-02-25T23:52:54.000Z,101433.13
2023-02-25T23:55:21.080Z,101443.34
2023-02-25T23:57:50.069Z,101440.75
